Date,TemperatureHighF,TemperatureAvgF,TemperatureLowF,DewpointHighF,DewpointAvgF,DewpointLowF,HumidityHigh,HumidityAvg,HumidityLow,PressureMaxIn,PressureMinIn,WindSpeedMaxMPH,WindSpeedAvgMPH,GustSpeedMaxMPH,PrecipitationSumIn
2013-1-1,15,11,9,3,-4,-7,76,51,38,30.40,30.13,13,6,25,0.00
2013-1-2,17,12,9,0,-3,-6,60,51,42,30.49,30.30,12,6,23,0.01
2013-1-3,16,14,13,-2,-3,-4,49,45,42,30.47,30.35,1,0,1,0.00
2013-1-4,34,20,12,10,4,-3,60,50,35,30.37,30.14,2,0,4,0.00
2013-1-5,28,27,26,-4,-7,-13,26,22,17,30.36,30.26,8,6,17,0.00
2013-1-6,46,28,18,-4,-10,-16,30,20,8,30.32,29.93,8,2,13,0.02
2013-1-8,32,29,27,15,11,-10,54,46,16,30.23,29.67,15,6,30,0.00
2013-1-9,31,31,30,10,10,9,42,41,40,30.25,30.20,10,8,14,0.00
2013-1-10,44,36,25,10,3,-1,48,27,15,29.58,29.37,7,3,9,0.02
2013-1-11,25,24,23,17,9,5,74,53,44,29.37,29.21,6,1,6,0.00
2013-1-12,-7,-8,-9,-15,-16,-17,67,66,66,30.28,30.25,0,0,0,0.00
2013-1-13,6,-2,-9,-4,-10,-17,76,68,62,30.47,30.20,5,1,8,0.00
2013-1-14,8,3,1,-11,-14,-15,47,46,41,30.50,30.27,10,6,18,0.00
2013-1-15,21,12,0,6,-6,-21,51,43,35,30.42,30.28,15,9,33,0.00
2013-1-16,33,27,18,15,12,4,62,53,46,30.38,30.22,15,8,24,0.00
2013-1-17,40,28,16,15,6,0,65,41,22,30.58,30.22,11,3,18,0.00
2013-1-18,38,33,30,6,0,-4,32,25,19,30.22,30.04,18,8,32,0.00
2013-1-19,36,32,29,1,-1,-4,28,24,18,30.24,29.97,21,8,33,0.00
2013-1-20,38,32,27,6,-1,-5,38,24,18,30.24,30.03,13,7,28,0.00
2013-1-21,35,31,27,7,1,-6,34,27,18,30.20,30.04,17,10,29,0.00
2013-1-22,42,37,33,-2,-10,-18,19,13,7,30.15,29.90,21,12,40,0.00
2013-1-23,52,43,37,5,-7,-21,23,12,6,30.15,29.94,18,8,25,0.00
2013-1-24,45,39,36,25,10,-5,63,34,16,30.02,29.78,19,8,31,0.00
2013-1-25,42,38,35,26,24,21,64,57,48,30.07,29.90,18,9,32,0.00
2013-1-26,45,37,29,28,23,18,84,58,34,29.91,29.59,10,3,17,0.00
2013-1-27,42,34,25,28,22,13,89,62,41,29.74,29.53,12,4,18,0.03
2013-1-28,44,29,20,23,15,9,80,56,26,29.66,29.44,10,2,16,0.00
2013-1-29,20,12,5,14,-2,-8,80,54,35,30.15,29.56,12,6,25,0.00
2013-1-30,22,15,6,15,5,-6,77,63,51,30.11,29.91,22,13,42,0.00
2013-1-31,28,24,21,16,13,10,80,62,48,30.20,29.88,23,15,43,0.00
2013-2-1,30,26,23,20,15,9,78,63,50,30.17,30.03,23,13,40,0.00
2013-2-2,35,30,25,13,7,1,59,39,26,30.35,30.07,24,10,51,0.00
2013-2-3,42,34,28,4,-3,-12,32,21,11,30.17,29.82,14,6,28,0.01
2013-2-4,36,30,27,3,0,-3,33,27,23,29.98,29.84,15,9,35,0.00
2013-2-5,37,35,33,18,17,16,52,48,43,29.85,29.74,6,3,10,0.00
2013-2-6,40,34,25,23,17,13,73,50,38,30.00,29.66,10,4,15,0.00
2013-2-7,37,26,18,12,0,-10,65,34,14,30.22,29.98,10,4,15,0.00
2013-2-8,40,27,17,14,0,-10,67,32,17,30.06,29.63,6,1,11,0.00
2013-2-9,27,22,17,20,14,5,80,70,55,29.76,29.48,7,1,15,0.00
2013-2-10,22,17,10,13,7,2,76,64,48,30.10,29.56,6,2,9,0.00
2013-2-11,19,9,-1,11,2,-7,84,73,68,30.29,30.08,4,0,7,0.00
2013-2-13,24,19,17,10,5,3,57,54,49,30.14,30.00,19,13,30,0.00
2013-2-14,21,14,11,12,8,6,80,75,68,30.38,30.18,4,1,6,0.00
2013-2-15,23,18,9,12,8,4,84,66,51,30.47,30.23,16,7,29,0.00
2013-2-16,35,28,21,12,8,2,65,42,28,30.33,29.97,20,12,35,0.00
2013-2-17,42,33,20,14,1,-8,65,28,15,29.98,29.49,17,8,34,0.01
2013-2-18,23,18,9,8,1,-6,64,47,32,30.24,29.61,12,6,21,0.00
2013-2-19,37,24,8,7,-4,-17,58,33,12,30.24,29.69,9,2,18,0.00
2013-2-20,32,21,15,13,8,3,78,57,32,29.81,29.59,5,1,9,0.00
2013-2-21,22,16,10,13,9,4,81,75,66,30.01,29.61,8,1,14,0.00
2013-2-22,26,18,14,14,4,-2,72,54,41,30.05,29.84,16,6,32,0.00
2013-2-23,36,23,14,15,5,-2,61,46,37,29.92,29.60,19,10,40,0.00
2013-2-25,28,24,23,7,4,1,46,42,35,30.02,29.76,10,8,15,0.00
2013-2-26,25,20,12,16,11,5,80,68,42,30.21,29.73,10,2,20,0.00
2013-2-27,23,15,7,7,0,-10,77,54,32,30.43,30.20,13,6,21,0.00
2013-2-28,25,19,13,10,3,-3,64,50,35,30.41,30.30,18,8,30,0.00
2013-3-1,34,27,19,19,13,7,63,55,43,30.41,30.25,15,8,25,0.02
2013-3-2,42,35,29,20,18,11,64,51,33,30.35,29.96,16,8,32,0.05
2013-3-3,40,36,33,22,15,12,64,42,36,29.96,29.56,15,6,26,0.08
2013-3-4,36,26,15,25,18,-2,83,71,45,30.19,29.55,11,5,18,0.03
2013-3-5,24,24,24,0,-2,-5,34,32,28,30.08,30.08,2,1,4,0.02
2013-3-6,50,38,24,16,5,-5,39,26,15,30.08,29.63,8,3,15,0.09
2013-3-7,51,39,27,20,12,2,56,34,13,29.94,29.60,8,3,14,0.00
2013-3-8,44,32,25,24,17,7,84,54,31,29.93,29.53,6,1,9,0.00
2013-3-9,28,26,24,24,22,20,87,85,79,29.75,29.50,8,1,15,0.00
2013-3-10,33,25,12,18,12,5,76,58,45,30.26,30.00,12,6,31,0.12
2013-3-11,35,28,23,21,15,7,85,58,44,30.10,29.83,24,12,52,0.02
2013-3-12,39,28,18,25,18,14,85,69,43,30.31,30.07,15,4,44,0.10
2013-3-13,46,39,34,21,18,13,55,43,26,30.17,30.02,18,8,50,0.26
2013-3-14,53,44,38,19,15,7,42,32,17,30.19,30.04,15,8,39,0.00
2013-3-15,56,48,40,28,18,14,61,32,22,29.93,29.68,16,6,41,0.00
2013-3-16,45,37,31,28,24,18,75,59,40,29.85,29.63,9,3,25,0.00
2013-3-17,42,32,20,26,17,7,79,57,26,29.81,29.43,13,6,38,0.03
2013-3-18,30,24,17,15,8,2,73,53,37,30.03,29.77,13,7,34,0.01
2013-3-19,36,28,18,9,-4,-18,53,28,11,30.37,29.95,22,8,51,0.00
2013-3-20,46,33,13,22,7,-12,56,36,19,30.34,29.50,20,8,48,0.00
2013-3-21,45,32,22,26,17,6,79,54,31,29.69,29.37,19,8,43,0.02
2013-3-22,24,21,18,19,15,12,81,79,78,29.84,29.74,3,1,9,0.00
2013-3-23,17,12,3,12,4,-4,79,71,60,30.42,29.81,5,1,13,0.00
2013-3-24,17,10,2,6,2,-4,77,68,56,30.38,30.25,9,2,23,0.00
2013-3-25,27,17,8,13,4,-2,74,57,28,30.45,30.25,9,4,22,0.08
2013-3-26,45,31,14,21,12,-2,68,48,28,30.26,29.82,15,5,32,0.21
2013-3-27,47,33,24,23,20,15,85,61,29,30.01,29.86,11,4,25,0.08
2013-3-28,40,36,33,27,26,24,73,67,60,30.12,29.99,4,0,8,0.00
2013-3-29,50,39,29,27,23,19,72,55,29,30.06,29.94,14,5,32,0.00
2013-3-30,49,39,30,29,23,16,86,55,28,30.11,29.86,15,5,38,0.00
2013-3-31,54,40,27,27,15,5,86,43,16,30.06,29.85,14,5,39,0.00
2013-4-1,43,32,23,29,23,16,85,69,47,30.07,29.88,6,1,14,0.00
2013-4-2,36,31,30,31,28,26,90,87,82,29.99,29.90,4,0,7,0.01
2013-4-3,39,31,23,31,23,16,92,76,42,30.17,30.02,5,1,13,0.28
2013-4-4,54,44,35,25,20,12,63,40,20,30.06,29.84,10,5,31,0.00
2013-4-5,36,35,35,26,25,23,68,65,61,29.65,29.53,11,6,39,0.02
2013-4-6,52,40,32,25,20,16,64,45,27,29.88,29.65,10,6,33,0.02
2013-4-9,7,4,4,-2,-3,-4,72,70,68,30.37,30.31,1,0,6,0.00
2013-4-10,26,12,-2,16,5,-10,81,71,60,30.40,29.95,17,2,30,0.14
2013-5-30,42,41,39,30,26,24,68,55,49,29.73,29.47,8,5,14,0.08
2013-5-31,56,50,44,17,12,8,31,22,16,29.85,29.58,24,13,40,0.00
2013-6-1,45,43,41,22,17,14,46,35,28,29.84,29.80,11,7,21,0.00
2013-6-4,49,44,41,46,41,39,92,90,84,29.97,29.82,7,2,14,0.14
2013-6-5,53,43,38,43,39,36,93,86,56,30.00,29.85,5,2,8,0.03
2013-6-6,66,56,46,38,35,28,71,47,27,29.91,29.80,6,2,10,0.00
2013-6-7,73,53,38,48,34,26,85,53,18,29.90,29.44,10,2,13,0.01
2013-6-8,65,58,46,50,38,30,74,46,34,29.76,29.36,13,6,21,0.01
2013-6-9,80,61,40,38,30,28,75,36,16,29.87,29.58,9,5,20,0.00
2013-6-10,86,68,52,36,28,20,50,25,10,29.68,29.45,10,3,14,0.00
2013-6-11,72,67,63,20,18,17,18,15,13,29.57,29.46,14,10,26,0.00
2013-6-12,65,58,53,26,19,16,30,22,17,29.76,29.45,15,4,20,0.00
2013-6-13,85,64,47,45,33,22,63,38,11,29.79,29.55,13,3,22,0.00
2013-6-14,80,61,48,38,32,22,63,36,12,29.74,29.50,8,2,13,0.00
2013-6-15,50,45,40,40,35,33,85,70,57,29.82,29.59,2,0,4,0.00
2013-6-16,54,53,52,33,32,31,46,45,44,29.84,29.77,7,4,11,0.01
2013-6-17,71,57,43,47,36,27,77,47,25,29.97,29.74,8,3,11,0.00
2013-6-18,72,55,42,52,41,34,84,61,27,29.88,29.59,6,2,13,0.00
2013-6-19,84,68,44,41,25,8,80,27,8,29.67,29.34,9,-314,13,0.00
2013-6-20,68,53,45,26,16,9,35,23,14,29.60,29.35,6,2,15,0.00
2013-6-21,83,62,44,34,24,14,53,27,10,29.68,29.45,8,2,15,0.00
2013-6-22,76,64,50,44,31,18,53,30,15,29.62,29.49,9,3,11,0.00
2013-6-23,71,58,44,51,31,19,72,36,21,29.74,29.54,10,3,17,0.00
2013-6-24,78,61,42,38,25,14,71,32,11,29.67,29.44,9,3,17,0.00
2013-6-25,62,57,54,30,23,19,36,27,20,29.59,29.42,7,3,13,0.00
2013-6-27,85,72,58,37,34,31,46,27,15,29.86,29.75,6,2,10,0.00
2013-6-28,85,65,53,56,41,27,92,48,14,29.90,29.74,8,3,14,0.06
2013-6-29,74,55,46,59,49,44,95,80,37,30.02,29.80,9,1,13,0.33
2013-6-30,69,56,50,54,48,-100,89,76,50,30.03,29.77,7,-416,10,0.10
2013-7-1,66,54,44,53,46,37,92,76,47,30.12,29.92,8,-376,10,0.15
2013-7-2,71,54,42,54,45,39,94,75,38,30.09,29.83,13,-252,13,0.04
2013-7-3,78,53,41,54,39,-100,94,69,28,29.94,29.61,8,-47,11,0.33
2013-7-4,79,60,51,54,42,-100,84,55,26,29.84,29.58,10,-59,11,0.02
2013-7-5,77,64,51,54,47,41,93,60,28,29.65,29.48,9,-384,16,0.14
2013-7-6,77,60,50,48,45,38,92,62,27,29.74,29.56,12,-230,18,0.07
2013-7-7,79,65,54,49,44,38,75,49,23,29.73,29.58,9,3,16,0.02
2013-7-8,81,65,52,48,41,34,78,46,19,29.78,29.63,11,5,22,0.03
2013-7-9,83,62,55,43,25,-100,56,33,13,29.91,29.70,11,-19,15,0.00
2013-7-10,80,63,49,51,42,37,65,48,27,29.99,29.69,7,-251,11,0.00
2013-7-11,64,56,54,50,44,43,71,64,50,29.77,29.55,4,-146,7,0.00
2013-7-12,79,60,53,58,48,41,93,68,29,29.81,29.46,9,-35,15,1.95
2013-7-13,54,53,52,52,51,50,93,93,92,29.92,29.70,3,0,10,0.74
2013-7-14,64,56,49,56,52,48,94,86,61,29.96,29.73,5,1,9,0.67
2013-7-15,66,56,50,59,52,48,94,86,69,29.93,29.78,6,1,10,0.07
2013-7-16,71,57,44,51,46,42,93,70,38,29.97,29.80,6,2,10,0.00
2013-7-17,78,61,46,54,48,41,89,65,36,29.97,29.75,6,2,13,0.00
2013-7-18,81,54,52,53,25,-100,92,55,31,29.99,29.62,8,3,15,0.25
2013-7-19,72,60,51,54,50,42,89,72,48,29.97,29.70,7,2,16,0.00
2013-7-20,79,60,47,51,44,38,83,59,27,29.83,29.61,7,2,10,0.00
2013-7-21,82,64,49,51,36,23,82,40,13,29.72,29.53,13,3,14,0.00
2013-7-22,84,67,55,47,29,-100,58,27,8,29.76,29.52,11,4,18,0.00
2013-7-23,84,67,54,52,33,14,81,34,10,29.79,29.55,9,3,10,0.00
2013-7-24,73,58,51,58,50,46,87,74,52,29.97,29.70,7,-3,10,0.11
2013-7-25,61,55,50,53,48,44,91,78,58,30.03,29.77,10,-2,17,0.25
2013-7-26,71,56,44,51,45,39,93,69,34,30.08,29.82,6,1,11,0.01
2013-7-27,74,58,50,53,44,35,92,63,28,29.88,29.67,8,2,13,0.19
2013-7-28,65,55,49,55,50,45,94,84,50,29.73,29.59,5,1,9,0.07
2013-7-29,69,59,54,50,45,42,76,60,42,29.86,29.60,8,4,17,0.00
2013-7-30,76,61,50,45,42,37,76,51,25,29.98,29.83,12,4,17,0.00
2013-7-31,79,62,50,48,42,35,80,51,23,30.05,29.84,6,1,11,0.00
2013-8-1,79,61,48,48,42,36,81,54,24,29.89,29.57,8,2,14,0.00
2013-8-2,80,67,57,47,41,32,59,41,18,29.73,29.55,12,5,17,0.00
2013-8-3,75,62,49,57,45,39,91,57,28,29.92,29.65,7,2,15,0.07
2013-8-4,78,62,49,49,42,32,89,50,22,29.89,29.70,9,3,14,0.00
2013-8-5,76,62,54,51,42,37,88,51,27,29.86,29.66,8,4,13,0.06
2013-8-6,79,63,55,45,39,31,63,43,18,29.78,29.57,9,5,14,0.00
2013-8-7,66,56,48,47,41,34,74,56,34,29.82,29.66,5,1,10,0.00
2013-8-8,68,52,44,52,43,34,92,72,52,30.04,29.77,10,2,15,0.12
2013-8-9,69,50,43,52,44,39,93,81,42,30.08,29.85,6,1,10,0.18
2013-8-10,76,57,42,49,39,24,86,55,15,30.09,29.78,10,2,14,0.00
2013-8-11,68,57,50,47,41,35,74,55,36,29.96,29.75,6,1,11,0.00
2013-8-12,70,55,46,50,42,37,93,65,35,30.00,29.85,10,2,14,0.80
2013-8-13,63,52,45,52,46,40,93,81,55,30.12,29.86,7,2,15,0.21
2013-8-14,71,54,42,48,38,-100,85,58,25,30.08,29.86,17,3,17,0.00
2013-8-15,76,57,45,43,34,26,68,45,17,29.94,29.77,11,4,16,0.00
2013-8-16,80,60,46,46,36,25,68,44,14,30.02,29.78,8,2,17,0.00
2013-8-17,83,64,48,40,32,-100,63,34,13,29.88,29.71,9,3,13,0.00
2013-8-18,83,65,54,47,36,28,65,36,17,29.83,29.61,8,4,17,0.00
2013-8-19,81,67,55,43,38,33,54,36,20,29.83,29.65,8,2,13,0.00
2013-8-20,85,68,56,42,36,30,48,32,15,29.74,29.57,8,3,14,0.00
2013-8-21,79,65,55,52,42,36,67,46,24,29.86,29.58,9,2,17,0.00
2013-8-22,72,59,50,54,46,42,76,64,44,29.94,29.77,6,1,11,0.12
2013-9-9,54,52,51,51,50,49,92,90,88,29.78,29.67,2,1,6,0.75
2013-9-10,54,51,50,52,50,48,94,94,92,29.92,29.67,3,0,6,0.33
2013-9-11,54,52,51,53,51,49,95,95,94,29.96,29.88,3,1,6,1.74
2013-9-12,56,52,50,55,50,48,95,95,94,30.02,29.92,3,1,7,1.68
2013-9-13,60,55,48,56,51,44,89,86,81,29.73,29.62,4,1,7,0.21
2013-9-14,60,51,45,52,46,42,93,85,60,29.80,29.65,6,1,8,0.09
2013-9-15,50,48,46,49,46,44,95,93,91,30.05,29.76,4,0,7,1.07
2013-9-16,49,44,42,47,42,40,95,93,93,30.06,29.98,1,0,4,0.00
2013-9-19,54,48,41,43,40,36,85,72,61,30.03,29.79,6,2,8,0.00
2013-9-20,63,46,32,43,34,20,92,68,20,30.09,29.83,8,2,14,0.00
2013-9-21,70,55,40,47,34,24,69,47,26,29.83,29.52,11,3,16,0.00
2013-9-22,63,50,40,46,38,31,90,64,42,29.58,29.30,11,3,18,0.17
2013-9-23,47,42,38,38,31,26,89,67,49,29.96,29.28,22,10,33,0.11
2013-9-24,65,51,43,34,24,10,55,38,15,29.98,29.55,13,5,23,0.00
2013-9-25,71,58,47,30,20,10,45,24,12,29.63,29.15,10,3,16,0.00
2013-9-26,58,48,37,42,35,20,87,63,29,29.66,29.21,5,1,8,0.00
2013-9-27,42,39,32,39,35,26,92,88,76,29.83,29.50,12,1,24,0.27
2013-9-28,45,43,41,25,22,21,50,44,39,30.10,30.00,8,4,10,0.00
2013-9-29,60,49,41,22,16,11,43,27,19,30.00,29.57,20,6,39,0.00
2013-9-30,56,52,51,26,20,17,32,27,25,29.68,29.57,16,8,31,0.00
2013-10-1,62,51,39,41,32,19,77,49,28,29.88,29.60,7,2,11,0.00
2013-10-2,66,52,40,36,29,20,76,45,18,29.84,29.62,7,2,14,0.00
2013-10-3,61,45,36,39,31,21,88,60,26,29.63,29.43,6,2,9,0.08
2013-10-4,41,30,23,37,25,13,89,79,64,30.22,29.49,12,4,21,0.25
2013-10-5,38,29,23,16,14,11,69,53,35,30.31,30.14,17,10,29,0.02
2013-10-6,46,40,34,24,18,10,43,39,35,30.26,30.00,12,8,23,0.05
2013-10-7,65,52,46,27,16,6,38,25,11,30.00,29.66,10,5,17,0.00
2013-10-8,65,53,42,28,20,12,54,28,17,29.68,29.44,11,4,17,0.00
2013-10-9,56,45,36,36,30,22,82,57,35,29.86,29.49,7,1,9,0.00
2013-10-10,51,40,33,39,30,21,88,68,47,29.74,29.27,22,4,28,0.00
2013-10-11,43,38,34,29,25,22,80,60,49,29.95,29.27,24,11,51,0.00
2013-10-12,48,36,28,33,24,18,85,65,31,30.14,29.92,9,2,14,0.01
2013-10-15,31,28,26,24,23,21,83,80,74,30.24,30.14,4,1,9,0.01
2013-10-16,39,32,24,22,17,14,85,57,39,30.17,29.96,12,6,22,0.02
2013-10-17,43,34,28,26,18,11,85,54,28,30.05,29.86,14,4,23,0.00
2013-10-18,32,27,22,25,16,-100,87,66,46,30.20,29.89,15,5,33,0.00
2013-10-19,43,37,30,20,15,12,49,41,30,30.11,29.77,16,10,29,0.12
2013-10-20,41,35,25,30,22,15,85,61,38,30.08,29.73,9,3,20,0.04
2013-10-21,41,30,24,21,20,18,86,68,41,30.23,30.06,10,3,21,0.03
2013-10-22,52,46,40,25,23,21,53,40,30,30.11,29.91,10,5,17,0.00
2013-10-23,55,44,31,30,23,18,71,44,26,30.11,29.88,8,3,14,0.00
2013-10-24,44,32,28,27,23,22,77,68,48,30.19,30.06,6,1,10,0.00
2013-10-25,57,45,32,33,23,16,65,44,22,30.15,29.87,8,2,13,0.00
2013-10-26,50,38,28,30,24,16,79,60,34,30.31,29.96,6,1,10,0.00
2013-10-27,53,45,36,22,18,15,50,35,24,30.00,29.67,11,5,29,0.00
2013-10-28,36,31,28,27,23,19,84,72,51,29.94,29.72,4,0,10,0.00
2013-10-29,47,36,23,29,24,12,90,67,29,30.01,29.73,9,2,23,0.00
2013-10-30,38,31,28,28,20,13,90,66,48,29.87,29.59,11,6,32,0.01
2013-10-31,33,29,26,21,16,11,71,57,45,29.97,29.72,22,11,46,0.00
2013-11-1,35,32,30,23,18,14,73,57,43,30.21,29.87,14,7,34,0.01
2013-11-2,51,43,32,17,6,-8,53,25,9,30.17,29.46,13,7,33,0.05
2013-11-3,49,42,25,26,10,-7,73,29,10,29.67,29.31,14,5,30,0.02
2013-11-4,31,26,20,18,11,1,73,53,35,29.97,29.63,12,3,22,0.00
2013-11-5,26,21,18,14,1,-100,75,50,27,30.27,29.86,17,6,25,0.00
2013-11-6,32,26,18,15,8,-3,54,46,36,30.37,30.14,23,12,40,0.00
2013-11-7,47,38,30,18,15,12,53,40,27,30.37,29.82,13,5,18,0.00
2013-11-8,49,43,36,15,12,5,40,28,21,29.92,29.52,27,9,42,0.00
2013-11-9,51,42,35,22,14,11,47,32,23,30.11,29.85,12,5,21,0.00
2013-11-10,52,44,38,18,14,10,43,30,21,30.15,29.94,9,4,14,0.00
2013-11-11,51,43,26,22,15,13,83,34,23,30.44,30.00,16,5,28,0.00
2013-11-12,47,35,24,24,18,2,83,55,17,30.70,30.18,7,2,13,0.00
2013-11-13,44,41,40,6,4,0,23,21,17,30.27,30.17,8,5,16,0.00
2013-11-14,38,37,35,10,6,4,33,28,26,29.81,29.63,8,4,14,0.00
2013-11-15,47,37,30,26,11,-3,74,37,18,29.63,29.33,10,5,15,0.00
2013-11-16,38,31,26,25,15,-100,85,57,37,29.44,29.19,19,10,38,0.00
2013-11-17,34,28,21,20,17,13,84,64,44,30.08,29.44,27,11,51,0.00
2013-11-18,41,34,32,19,13,6,58,43,23,30.15,29.95,18,12,37,0.00
2013-11-19,44,39,35,27,21,9,71,49,33,29.90,29.60,12,6,35,0.00
2013-11-20,40,34,29,26,23,19,82,64,48,29.87,29.63,8,3,11,0.03
2013-11-21,28,13,4,22,7,-3,82,74,64,30.73,29.86,3,1,7,0.00
2013-11-22,22,16,13,16,10,8,82,78,68,30.78,30.55,1,0,2,0.00
2013-11-23,28,22,15,19,15,10,88,77,60,30.60,30.31,5,0,7,0.00
2013-11-24,38,30,19,32,25,16,91,82,64,30.31,29.87,5,1,10,0.08
2013-11-25,34,28,18,20,16,12,77,63,50,30.39,29.90,2,0,7,0.00
2013-11-26,36,27,18,16,13,11,78,58,41,30.53,30.22,7,2,15,0.00
2013-11-27,44,35,27,16,11,6,55,37,23,30.22,29.99,12,6,21,0.04
2013-11-28,42,30,22,22,14,10,65,52,35,30.23,30.00,6,1,11,0.00
2013-11-29,42,36,32,15,13,10,46,38,30,30.12,29.96,14,6,28,0.00
2013-11-30,39,34,31,15,9,4,49,36,24,30.16,30.06,12,6,22,0.00
2013-12-1,36,32,29,23,16,9,70,50,42,30.10,29.67,26,12,56,0.00
2013-12-2,38,35,32,24,20,15,72,56,41,29.78,29.49,27,18,49,0.00
2013-12-3,34,26,5,28,19,-2,81,72,58,29.68,29.38,10,1,16,0.00
2013-12-4,5,1,-5,-2,-15,-100,77,63,63,30.34,29.55,5,1,8,0.00